IQ-0033 weather

CLOSED Nejef New Air Field [Duplicate]
Najaf Governorate, Iraq

Public forecast

Using degrees Celsius for public forecast. Weather courtesy of forecast.io.

METAR (pilot weather report)

Closest report is Al Najaf International Airport, 0.1 nm (0.1 km) WNW. Retrieved 2019/05/26 10:00 UTC (35 minutes ago):

ORNI 261000Z 25008KT 8000 NSC 44/M01 Q1007 NOSIG

TAF (pilot weather forecast)

Forecast is more than 12 hours old.

Closest forecast is Al Najaf International Airport, 0.1 nm (0.1 km) WNW. Retrieved 2019/05/25 00:14 UTC (1 day ago):

TAF ORNI 252200Z 2600/2624 12006KT 8000 SCT030